sensor_id;sensor_type;location;lat;lon;timestamp;P1;durP1;ratioP1;P2;durP2;ratioP2
11646;SDS011;5880;52.342;9.662;2022-12-18T00:01:03;10.87;;;6.80;;
11646;SDS011;5880;52.342;9.662;2022-12-18T00:03:34;9.10;;;5.97;;
11646;SDS011;5880;52.342;9.662;2022-12-18T00:06:01;9.77;;;6.43;;
11646;SDS011;5880;52.342;9.662;2022-12-18T00:08:27;12.47;;;6.77;;
11646;SDS011;5880;52.342;9.662;2022-12-18T00:10:53;8.87;;;6.07;;
11646;SDS011;5880;52.342;9.662;2022-12-18T00:13:19;9.73;;;6.67;;
11646;SDS011;5880;52.342;9.662;2022-12-18T00:15:45;10.23;;;6.60;;
11646;SDS011;5880;52.342;9.662;2022-12-18T00:18:11;10.93;;;6.50;;
11646;SDS011;5880;52.342;9.662;2022-12-18T00:20:37;10.37;;;6.97;;
11646;SDS011;5880;52.342;9.662;2022-12-18T00:23:05;10.90;;;6.60;;
11646;SDS011;5880;52.342;9.662;2022-12-18T00:25:35;9.70;;;5.97;;
11646;SDS011;5880;52.342;9.662;2022-12-18T00:28:04;10.27;;;6.30;;
11646;SDS011;5880;52.342;9.662;2022-12-18T00:30:30;10.37;;;6.13;;
11646;SDS011;5880;52.342;9.662;2022-12-18T00:32:56;8.03;;;5.90;;
11646;SDS011;5880;52.342;9.662;2022-12-18T00:35:22;10.13;;;6.50;;
11646;SDS011;5880;52.342;9.662;2022-12-18T00:37:48;10.00;;;6.43;;
11646;SDS011;5880;52.342;9.662;2022-12-18T00:40:14;8.13;;;5.67;;
11646;SDS011;5880;52.342;9.662;2022-12-18T00:42:40;10.47;;;6.80;;
11646;SDS011;5880;52.342;9.662;2022-12-18T00:45:22;9.70;;;6.23;;
11646;SDS011;5880;52.342;9.662;2022-12-18T00:47:53;10.53;;;6.07;;
11646;SDS011;5880;52.342;9.662;2022-12-18T00:50:19;9.50;;;5.93;;
11646;SDS011;5880;52.342;9.662;2022-12-18T00:52:46;9.30;;;5.87;;
11646;SDS011;5880;52.342;9.662;2022-12-18T00:55:12;9.57;;;6.43;;
11646;SDS011;5880;52.342;9.662;2022-12-18T00:57:39;10.13;;;6.80;;
11646;SDS011;5880;52.342;9.662;2022-12-18T01:00:06;8.40;;;5.90;;
11646;SDS011;5880;52.342;9.662;2022-12-18T01:02:38;7.77;;;5.73;;
11646;SDS011;5880;52.342;9.662;2022-12-18T01:05:05;7.40;;;5.37;;
11646;SDS011;5880;52.342;9.662;2022-12-18T01:07:31;10.00;;;6.50;;
11646;SDS011;5880;52.342;9.662;2022-12-18T01:09:57;9.17;;;5.97;;
11646;SDS011;5880;52.342;9.662;2022-12-18T01:12:22;10.53;;;6.10;;
11646;SDS011;5880;52.342;9.662;2022-12-18T01:14:48;8.87;;;5.93;;
11646;SDS011;5880;52.342;9.662;2022-12-18T01:17:14;8.43;;;5.57;;
11646;SDS011;5880;52.342;9.662;2022-12-18T01:19:40;10.90;;;6.20;;
11646;SDS011;5880;52.342;9.662;2022-12-18T01:22:05;9.57;;;6.13;;
11646;SDS011;5880;52.342;9.662;2022-12-18T01:24:31;10.60;;;6.30;;
11646;SDS011;5880;52.342;9.662;2022-12-18T01:26:57;10.17;;;5.97;;
11646;SDS011;5880;52.342;9.662;2022-12-18T01:29:22;10.37;;;6.03;;
11646;SDS011;5880;52.342;9.662;2022-12-18T01:31:48;10.93;;;6.27;;
11646;SDS011;5880;52.342;9.662;2022-12-18T01:34:14;8.77;;;6.07;;
11646;SDS011;5880;52.342;9.662;2022-12-18T01:36:40;9.73;;;5.63;;
11646;SDS011;5880;52.342;9.662;2022-12-18T01:39:14;9.37;;;6.07;;
11646;SDS011;5880;52.342;9.662;2022-12-18T01:41:40;11.80;;;6.20;;
11646;SDS011;5880;52.342;9.662;2022-12-18T01:47:38;8.37;;;5.50;;
11646;SDS011;5880;52.342;9.662;2022-12-18T01:53:14;11.33;;;6.50;;
11646;SDS011;5880;52.342;9.662;2022-12-18T01:55:46;7.90;;;5.70;;
11646;SDS011;5880;52.342;9.662;2022-12-18T01:58:19;8.97;;;6.00;;
11646;SDS011;5880;52.342;9.662;2022-12-18T02:00:52;8.87;;;6.20;;
11646;SDS011;5880;52.342;9.662;2022-12-18T02:03:20;8.43;;;5.57;;
11646;SDS011;5880;52.342;9.662;2022-12-18T02:11:40;8.50;;;6.10;;
11646;SDS011;5880;52.342;9.662;2022-12-18T02:19:48;8.80;;;5.53;;
11646;SDS011;5880;52.342;9.662;2022-12-18T02:22:57;8.43;;;5.53;;
11646;SDS011;5880;52.342;9.662;2022-12-18T02:28:20;8.60;;;5.80;;
11646;SDS011;5880;52.342;9.662;2022-12-18T02:30:51;11.00;;;7.00;;
11646;SDS011;5880;52.342;9.662;2022-12-18T02:33:23;7.07;;;5.57;;
11646;SDS011;5880;52.342;9.662;2022-12-18T02:35:53;9.37;;;6.20;;
11646;SDS011;5880;52.342;9.662;2022-12-18T02:38:22;9.60;;;6.20;;
11646;SDS011;5880;52.342;9.662;2022-12-18T02:40:50;10.70;;;5.90;;
11646;SDS011;5880;52.342;9.662;2022-12-18T02:43:19;9.13;;;5.93;;
11646;SDS011;5880;52.342;9.662;2022-12-18T02:45:50;8.13;;;6.03;;
11646;SDS011;5880;52.342;9.662;2022-12-18T02:48:30;8.57;;;5.87;;
11646;SDS011;5880;52.342;9.662;2022-12-18T02:51:12;8.43;;;5.77;;
11646;SDS011;5880;52.342;9.662;2022-12-18T02:54:06;8.97;;;5.47;;
11646;SDS011;5880;52.342;9.662;2022-12-18T02:56:50;9.60;;;6.23;;
11646;SDS011;5880;52.342;9.662;2022-12-18T02:59:28;11.07;;;6.50;;
11646;SDS011;5880;52.342;9.662;2022-12-18T03:05:18;9.60;;;5.73;;
11646;SDS011;5880;52.342;9.662;2022-12-18T03:10:28;8.80;;;6.10;;
11646;SDS011;5880;52.342;9.662;2022-12-18T03:13:01;10.03;;;5.90;;
11646;SDS011;5880;52.342;9.662;2022-12-18T03:16:00;8.37;;;5.47;;
11646;SDS011;5880;52.342;9.662;2022-12-18T03:18:30;8.37;;;5.97;;
11646;SDS011;5880;52.342;9.662;2022-12-18T03:21:02;8.57;;;5.30;;
11646;SDS011;5880;52.342;9.662;2022-12-18T03:23:34;10.97;;;6.53;;
11646;SDS011;5880;52.342;9.662;2022-12-18T03:26:16;9.37;;;5.77;;
11646;SDS011;5880;52.342;9.662;2022-12-18T03:28:49;9.30;;;5.73;;
11646;SDS011;5880;52.342;9.662;2022-12-18T03:31:22;9.00;;;5.97;;
11646;SDS011;5880;52.342;9.662;2022-12-18T03:33:53;9.20;;;5.77;;
11646;SDS011;5880;52.342;9.662;2022-12-18T03:36:23;9.63;;;6.13;;
11646;SDS011;5880;52.342;9.662;2022-12-18T03:38:50;11.23;;;6.10;;
11646;SDS011;5880;52.342;9.662;2022-12-18T03:41:18;8.50;;;5.80;;
11646;SDS011;5880;52.342;9.662;2022-12-18T03:52:46;7.90;;;5.20;;
11646;SDS011;5880;52.342;9.662;2022-12-18T03:55:29;8.53;;;5.23;;
11646;SDS011;5880;52.342;9.662;2022-12-18T03:58:00;8.40;;;5.73;;
11646;SDS011;5880;52.342;9.662;2022-12-18T04:00:30;9.03;;;5.60;;
11646;SDS011;5880;52.342;9.662;2022-12-18T04:02:57;8.70;;;5.70;;
11646;SDS011;5880;52.342;9.662;2022-12-18T04:05:27;9.10;;;5.80;;
11646;SDS011;5880;52.342;9.662;2022-12-18T04:07:55;8.53;;;5.90;;
11646;SDS011;5880;52.342;9.662;2022-12-18T04:10:22;9.13;;;5.50;;
11646;SDS011;5880;52.342;9.662;2022-12-18T04:12:48;8.00;;;5.37;;
11646;SDS011;5880;52.342;9.662;2022-12-18T04:15:14;9.70;;;5.90;;
11646;SDS011;5880;52.342;9.662;2022-12-18T04:17:47;9.47;;;5.70;;
11646;SDS011;5880;52.342;9.662;2022-12-18T04:20:14;8.20;;;5.40;;
11646;SDS011;5880;52.342;9.662;2022-12-18T04:22:40;10.60;;;6.57;;
11646;SDS011;5880;52.342;9.662;2022-12-18T04:25:06;9.27;;;5.77;;
11646;SDS011;5880;52.342;9.662;2022-12-18T04:27:33;8.00;;;5.57;;
11646;SDS011;5880;52.342;9.662;2022-12-18T04:29:59;8.60;;;5.83;;
11646;SDS011;5880;52.342;9.662;2022-12-18T04:32:25;8.33;;;5.87;;
11646;SDS011;5880;52.342;9.662;2022-12-18T04:34:50;9.47;;;5.57;;
11646;SDS011;5880;52.342;9.662;2022-12-18T04:37:16;7.73;;;5.23;;
11646;SDS011;5880;52.342;9.662;2022-12-18T04:39:42;9.77;;;5.80;;
11646;SDS011;5880;52.342;9.662;2022-12-18T04:42:08;12.07;;;6.63;;
11646;SDS011;5880;52.342;9.662;2022-12-18T04:44:33;8.87;;;5.93;;
11646;SDS011;5880;52.342;9.662;2022-12-18T04:46:59;9.27;;;5.77;;
11646;SDS011;5880;52.342;9.662;2022-12-18T04:49:25;9.47;;;5.80;;
11646;SDS011;5880;52.342;9.662;2022-12-18T04:51:50;7.03;;;5.00;;
11646;SDS011;5880;52.342;9.662;2022-12-18T04:54:19;8.57;;;5.73;;
11646;SDS011;5880;52.342;9.662;2022-12-18T04:56:45;8.50;;;5.70;;
11646;SDS011;5880;52.342;9.662;2022-12-18T04:59:11;7.27;;;5.30;;
11646;SDS011;5880;52.342;9.662;2022-12-18T05:01:36;7.77;;;5.57;;
11646;SDS011;5880;52.342;9.662;2022-12-18T05:04:02;7.70;;;5.43;;
11646;SDS011;5880;52.342;9.662;2022-12-18T05:06:28;8.10;;;5.60;;
11646;SDS011;5880;52.342;9.662;2022-12-18T05:08:54;7.77;;;5.10;;
11646;SDS011;5880;52.342;9.662;2022-12-18T05:11:20;8.17;;;5.33;;
11646;SDS011;5880;52.342;9.662;2022-12-18T05:13:45;9.23;;;5.80;;
11646;SDS011;5880;52.342;9.662;2022-12-18T05:16:11;9.10;;;6.07;;
11646;SDS011;5880;52.342;9.662;2022-12-18T05:18:39;9.50;;;5.43;;
11646;SDS011;5880;52.342;9.662;2022-12-18T05:21:05;9.10;;;5.53;;
11646;SDS011;5880;52.342;9.662;2022-12-18T05:23:30;7.33;;;5.13;;
11646;SDS011;5880;52.342;9.662;2022-12-18T05:26:00;9.73;;;5.53;;
11646;SDS011;5880;52.342;9.662;2022-12-18T05:28:29;8.83;;;5.30;;
11646;SDS011;5880;52.342;9.662;2022-12-18T05:30:58;7.03;;;4.97;;
11646;SDS011;5880;52.342;9.662;2022-12-18T05:33:28;6.97;;;5.00;;
11646;SDS011;5880;52.342;9.662;2022-12-18T05:35:57;8.27;;;5.23;;
11646;SDS011;5880;52.342;9.662;2022-12-18T05:38:26;7.63;;;5.53;;
11646;SDS011;5880;52.342;9.662;2022-12-18T05:40:53;7.17;;;4.90;;
11646;SDS011;5880;52.342;9.662;2022-12-18T05:43:20;7.73;;;5.00;;
11646;SDS011;5880;52.342;9.662;2022-12-18T05:45:48;6.53;;;4.77;;
11646;SDS011;5880;52.342;9.662;2022-12-18T05:48:15;8.57;;;5.33;;
11646;SDS011;5880;52.342;9.662;2022-12-18T05:50:43;9.37;;;5.50;;
11646;SDS011;5880;52.342;9.662;2022-12-18T05:53:11;10.57;;;5.97;;
11646;SDS011;5880;52.342;9.662;2022-12-18T05:55:40;8.77;;;5.30;;
11646;SDS011;5880;52.342;9.662;2022-12-18T05:58:08;8.43;;;4.97;;
11646;SDS011;5880;52.342;9.662;2022-12-18T06:00:37;8.97;;;5.50;;
11646;SDS011;5880;52.342;9.662;2022-12-18T06:03:05;8.10;;;5.20;;
11646;SDS011;5880;52.342;9.662;2022-12-18T06:05:35;9.23;;;5.67;;
11646;SDS011;5880;52.342;9.662;2022-12-18T06:08:03;10.00;;;4.97;;
11646;SDS011;5880;52.342;9.662;2022-12-18T06:10:29;6.80;;;4.80;;
11646;SDS011;5880;52.342;9.662;2022-12-18T06:12:56;8.03;;;5.10;;
11646;SDS011;5880;52.342;9.662;2022-12-18T06:15:22;7.30;;;5.07;;
11646;SDS011;5880;52.342;9.662;2022-12-18T06:17:47;8.33;;;5.20;;
11646;SDS011;5880;52.342;9.662;2022-12-18T06:20:13;7.33;;;4.90;;
11646;SDS011;5880;52.342;9.662;2022-12-18T06:22:39;7.00;;;5.00;;
11646;SDS011;5880;52.342;9.662;2022-12-18T06:25:04;7.97;;;4.87;;
11646;SDS011;5880;52.342;9.662;2022-12-18T06:27:31;7.80;;;5.10;;
11646;SDS011;5880;52.342;9.662;2022-12-18T06:29:58;9.90;;;5.90;;
11646;SDS011;5880;52.342;9.662;2022-12-18T06:32:25;7.60;;;5.17;;
11646;SDS011;5880;52.342;9.662;2022-12-18T06:34:51;7.80;;;5.30;;
11646;SDS011;5880;52.342;9.662;2022-12-18T06:37:18;8.13;;;5.63;;
11646;SDS011;5880;52.342;9.662;2022-12-18T06:39:43;7.70;;;5.17;;
11646;SDS011;5880;52.342;9.662;2022-12-18T06:42:09;7.53;;;5.27;;
11646;SDS011;5880;52.342;9.662;2022-12-18T06:44:35;8.63;;;5.00;;
11646;SDS011;5880;52.342;9.662;2022-12-18T06:47:00;8.40;;;5.20;;
11646;SDS011;5880;52.342;9.662;2022-12-18T06:49:26;7.40;;;4.83;;
11646;SDS011;5880;52.342;9.662;2022-12-18T06:51:52;6.77;;;5.17;;
11646;SDS011;5880;52.342;9.662;2022-12-18T06:54:17;7.30;;;5.07;;
11646;SDS011;5880;52.342;9.662;2022-12-18T06:56:45;9.17;;;5.87;;
11646;SDS011;5880;52.342;9.662;2022-12-18T06:59:12;8.07;;;5.00;;
11646;SDS011;5880;52.342;9.662;2022-12-18T07:01:38;7.27;;;5.13;;
11646;SDS011;5880;52.342;9.662;2022-12-18T07:04:04;6.87;;;4.60;;
11646;SDS011;5880;52.342;9.662;2022-12-18T07:06:29;6.87;;;4.40;;
11646;SDS011;5880;52.342;9.662;2022-12-18T07:08:55;8.47;;;5.30;;
11646;SDS011;5880;52.342;9.662;2022-12-18T07:11:21;8.20;;;5.00;;
11646;SDS011;5880;52.342;9.662;2022-12-18T07:13:47;7.40;;;5.00;;
11646;SDS011;5880;52.342;9.662;2022-12-18T07:16:14;9.67;;;5.23;;
11646;SDS011;5880;52.342;9.662;2022-12-18T07:18:43;7.07;;;4.97;;
11646;SDS011;5880;52.342;9.662;2022-12-18T07:21:11;8.97;;;5.40;;
11646;SDS011;5880;52.342;9.662;2022-12-18T07:23:39;6.77;;;4.63;;
11646;SDS011;5880;52.342;9.662;2022-12-18T07:26:06;9.33;;;5.77;;
11646;SDS011;5880;52.342;9.662;2022-12-18T07:28:36;8.13;;;5.53;;
11646;SDS011;5880;52.342;9.662;2022-12-18T07:31:08;6.93;;;4.93;;
11646;SDS011;5880;52.342;9.662;2022-12-18T07:33:37;7.00;;;4.73;;
11646;SDS011;5880;52.342;9.662;2022-12-18T07:36:05;6.23;;;4.87;;
11646;SDS011;5880;52.342;9.662;2022-12-18T07:38:33;8.33;;;5.40;;
11646;SDS011;5880;52.342;9.662;2022-12-18T07:41:04;7.83;;;5.27;;
11646;SDS011;5880;52.342;9.662;2022-12-18T07:43:36;6.80;;;4.77;;
11646;SDS011;5880;52.342;9.662;2022-12-18T07:46:03;7.23;;;5.07;;
11646;SDS011;5880;52.342;9.662;2022-12-18T07:48:29;9.03;;;5.50;;
11646;SDS011;5880;52.342;9.662;2022-12-18T07:51:02;7.50;;;4.80;;
11646;SDS011;5880;52.342;9.662;2022-12-18T07:53:31;7.83;;;5.07;;
11646;SDS011;5880;52.342;9.662;2022-12-18T07:55:59;7.97;;;5.17;;
11646;SDS011;5880;52.342;9.662;2022-12-18T07:58:30;7.33;;;5.10;;
11646;SDS011;5880;52.342;9.662;2022-12-18T08:01:09;7.23;;;5.23;;
11646;SDS011;5880;52.342;9.662;2022-12-18T08:03:37;8.97;;;5.73;;
11646;SDS011;5880;52.342;9.662;2022-12-18T08:06:05;7.67;;;5.07;;
11646;SDS011;5880;52.342;9.662;2022-12-18T08:08:34;9.50;;;5.47;;
11646;SDS011;5880;52.342;9.662;2022-12-18T08:11:01;6.57;;;4.93;;
11646;SDS011;5880;52.342;9.662;2022-12-18T08:13:27;8.77;;;5.23;;
11646;SDS011;5880;52.342;9.662;2022-12-18T08:16:01;9.40;;;5.50;;
11646;SDS011;5880;52.342;9.662;2022-12-18T08:18:32;7.87;;;5.50;;
11646;SDS011;5880;52.342;9.662;2022-12-18T08:21:09;7.20;;;4.83;;
11646;SDS011;5880;52.342;9.662;2022-12-18T08:23:37;6.73;;;5.03;;
11646;SDS011;5880;52.342;9.662;2022-12-18T08:26:03;7.07;;;5.20;;
11646;SDS011;5880;52.342;9.662;2022-12-18T08:28:29;7.23;;;5.13;;
11646;SDS011;5880;52.342;9.662;2022-12-18T08:30:54;7.40;;;5.07;;
11646;SDS011;5880;52.342;9.662;2022-12-18T08:33:20;7.47;;;5.10;;
11646;SDS011;5880;52.342;9.662;2022-12-18T08:35:46;8.03;;;5.27;;
11646;SDS011;5880;52.342;9.662;2022-12-18T08:38:11;9.70;;;5.40;;
11646;SDS011;5880;52.342;9.662;2022-12-18T08:40:37;7.27;;;4.97;;
11646;SDS011;5880;52.342;9.662;2022-12-18T08:43:03;7.47;;;4.90;;
11646;SDS011;5880;52.342;9.662;2022-12-18T08:45:47;9.13;;;5.47;;
11646;SDS011;5880;52.342;9.662;2022-12-18T08:48:13;9.43;;;5.77;;
11646;SDS011;5880;52.342;9.662;2022-12-18T08:50:39;7.37;;;5.37;;
11646;SDS011;5880;52.342;9.662;2022-12-18T08:53:05;8.27;;;5.80;;
11646;SDS011;5880;52.342;9.662;2022-12-18T08:55:30;7.67;;;5.27;;
11646;SDS011;5880;52.342;9.662;2022-12-18T08:57:56;7.77;;;4.90;;
11646;SDS011;5880;52.342;9.662;2022-12-18T09:00:22;7.80;;;4.97;;
11646;SDS011;5880;52.342;9.662;2022-12-18T09:02:47;8.00;;;5.40;;
11646;SDS011;5880;52.342;9.662;2022-12-18T09:05:13;7.47;;;5.07;;
11646;SDS011;5880;52.342;9.662;2022-12-18T09:07:39;7.40;;;4.43;;
11646;SDS011;5880;52.342;9.662;2022-12-18T09:10:05;7.30;;;4.70;;
11646;SDS011;5880;52.342;9.662;2022-12-18T09:12:31;6.50;;;4.37;;
11646;SDS011;5880;52.342;9.662;2022-12-18T09:14:57;8.23;;;4.80;;
11646;SDS011;5880;52.342;9.662;2022-12-18T09:17:22;6.23;;;4.57;;
11646;SDS011;5880;52.342;9.662;2022-12-18T09:19:48;7.63;;;5.10;;
11646;SDS011;5880;52.342;9.662;2022-12-18T09:22:14;7.07;;;4.40;;
11646;SDS011;5880;52.342;9.662;2022-12-18T09:24:40;6.63;;;4.33;;
11646;SDS011;5880;52.342;9.662;2022-12-18T09:27:05;6.37;;;4.57;;
11646;SDS011;5880;52.342;9.662;2022-12-18T09:29:31;9.90;;;4.93;;
11646;SDS011;5880;52.342;9.662;2022-12-18T09:31:57;8.33;;;5.00;;
11646;SDS011;5880;52.342;9.662;2022-12-18T09:34:23;7.17;;;4.50;;
11646;SDS011;5880;52.342;9.662;2022-12-18T09:36:49;7.13;;;4.57;;
11646;SDS011;5880;52.342;9.662;2022-12-18T09:39:16;7.43;;;4.60;;
11646;SDS011;5880;52.342;9.662;2022-12-18T09:41:50;6.90;;;4.23;;
11646;SDS011;5880;52.342;9.662;2022-12-18T09:44:21;8.23;;;4.70;;
11646;SDS011;5880;52.342;9.662;2022-12-18T09:49:45;6.37;;;4.70;;
11646;SDS011;5880;52.342;9.662;2022-12-18T09:52:17;5.90;;;4.23;;
11646;SDS011;5880;52.342;9.662;2022-12-18T09:58:24;5.77;;;3.97;;
11646;SDS011;5880;52.342;9.662;2022-12-18T10:01:23;6.17;;;4.23;;
11646;SDS011;5880;52.342;9.662;2022-12-18T10:03:49;6.43;;;4.10;;
11646;SDS011;5880;52.342;9.662;2022-12-18T10:06:35;5.60;;;4.00;;
11646;SDS011;5880;52.342;9.662;2022-12-18T10:09:36;6.27;;;4.20;;
11646;SDS011;5880;52.342;9.662;2022-12-18T10:12:21;5.93;;;3.83;;
11646;SDS011;5880;52.342;9.662;2022-12-18T10:21:30;6.50;;;4.03;;
11646;SDS011;5880;52.342;9.662;2022-12-18T10:27:22;5.87;;;4.17;;
11646;SDS011;5880;52.342;9.662;2022-12-18T10:29:51;6.97;;;4.43;;
11646;SDS011;5880;52.342;9.662;2022-12-18T10:32:20;6.00;;;4.30;;
11646;SDS011;5880;52.342;9.662;2022-12-18T10:34:55;7.50;;;4.53;;
11646;SDS011;5880;52.342;9.662;2022-12-18T10:37:23;5.17;;;4.10;;
11646;SDS011;5880;52.342;9.662;2022-12-18T10:42:38;4.57;;;3.47;;
11646;SDS011;5880;52.342;9.662;2022-12-18T10:45:15;6.87;;;4.53;;
11646;SDS011;5880;52.342;9.662;2022-12-18T10:47:45;6.10;;;4.07;;
11646;SDS011;5880;52.342;9.662;2022-12-18T10:50:22;5.07;;;3.63;;
11646;SDS011;5880;52.342;9.662;2022-12-18T10:52:55;6.50;;;4.27;;
11646;SDS011;5880;52.342;9.662;2022-12-18T10:55:27;4.30;;;3.50;;
11646;SDS011;5880;52.342;9.662;2022-12-18T10:58:24;5.23;;;3.50;;
11646;SDS011;5880;52.342;9.662;2022-12-18T11:01:10;5.23;;;3.47;;
11646;SDS011;5880;52.342;9.662;2022-12-18T11:06:10;5.97;;;3.97;;
11646;SDS011;5880;52.342;9.662;2022-12-18T11:09:23;6.07;;;3.33;;
11646;SDS011;5880;52.342;9.662;2022-12-18T11:11:50;4.57;;;3.57;;
11646;SDS011;5880;52.342;9.662;2022-12-18T11:14:23;7.17;;;4.30;;
11646;SDS011;5880;52.342;9.662;2022-12-18T11:16:54;4.43;;;3.33;;
11646;SDS011;5880;52.342;9.662;2022-12-18T11:19:36;4.50;;;3.80;;
11646;SDS011;5880;52.342;9.662;2022-12-18T11:22:19;6.57;;;3.80;;
11646;SDS011;5880;52.342;9.662;2022-12-18T11:25:36;5.90;;;3.93;;
11646;SDS011;5880;52.342;9.662;2022-12-18T11:27:37;5.57;;;3.87;;
11646;SDS011;5880;52.342;9.662;2022-12-18T11:32:59;6.13;;;3.20;;
11646;SDS011;5880;52.342;9.662;2022-12-18T11:43:54;4.00;;;3.27;;
11646;SDS011;5880;52.342;9.662;2022-12-18T11:46:32;6.63;;;3.63;;
11646;SDS011;5880;52.342;9.662;2022-12-18T11:49:22;5.90;;;4.20;;
11646;SDS011;5880;52.342;9.662;2022-12-18T11:54:34;5.90;;;4.00;;
11646;SDS011;5880;52.342;9.662;2022-12-18T11:57:06;5.77;;;4.30;;
11646;SDS011;5880;52.342;9.662;2022-12-18T12:02:38;5.53;;;3.77;;
11646;SDS011;5880;52.342;9.662;2022-12-18T12:05:49;6.50;;;4.27;;
11646;SDS011;5880;52.342;9.662;2022-12-18T12:23:06;5.37;;;3.90;;
11646;SDS011;5880;52.342;9.662;2022-12-18T12:26:04;6.93;;;3.77;;
11646;SDS011;5880;52.342;9.662;2022-12-18T12:28:42;5.90;;;3.70;;
11646;SDS011;5880;52.342;9.662;2022-12-18T12:39:47;3.83;;;2.50;;
11646;SDS011;5880;52.342;9.662;2022-12-18T12:45:26;3.57;;;2.53;;
11646;SDS011;5880;52.342;9.662;2022-12-18T12:48:14;3.27;;;2.80;;
11646;SDS011;5880;52.342;9.662;2022-12-18T12:50:56;4.10;;;2.60;;
11646;SDS011;5880;52.342;9.662;2022-12-18T12:53:28;3.03;;;2.60;;
11646;SDS011;5880;52.342;9.662;2022-12-18T12:56:01;4.03;;;2.40;;
11646;SDS011;5880;52.342;9.662;2022-12-18T13:01:35;2.80;;;2.40;;
11646;SDS011;5880;52.342;9.662;2022-12-18T13:04:18;3.03;;;2.37;;
11646;SDS011;5880;52.342;9.662;2022-12-18T13:07:13;4.47;;;2.30;;
11646;SDS011;5880;52.342;9.662;2022-12-18T13:10:22;4.83;;;3.03;;
11646;SDS011;5880;52.342;9.662;2022-12-18T13:20:34;3.93;;;3.20;;
11646;SDS011;5880;52.342;9.662;2022-12-18T13:23:19;4.70;;;3.17;;
11646;SDS011;5880;52.342;9.662;2022-12-18T13:25:48;5.20;;;3.40;;
11646;SDS011;5880;52.342;9.662;2022-12-18T13:28:49;5.07;;;3.50;;
11646;SDS011;5880;52.342;9.662;2022-12-18T13:31:10;5.93;;;4.20;;
11646;SDS011;5880;52.342;9.662;2022-12-18T13:33:46;5.83;;;4.30;;
11646;SDS011;5880;52.342;9.662;2022-12-18T13:36:16;6.37;;;4.40;;
11646;SDS011;5880;52.342;9.662;2022-12-18T13:41:39;4.90;;;3.77;;
11646;SDS011;5880;52.342;9.662;2022-12-18T13:44:22;5.77;;;4.20;;
11646;SDS011;5880;52.342;9.662;2022-12-18T13:46:58;6.87;;;4.27;;
11646;SDS011;5880;52.342;9.662;2022-12-18T13:49:37;5.30;;;4.30;;
11646;SDS011;5880;52.342;9.662;2022-12-18T13:52:19;6.13;;;4.30;;
11646;SDS011;5880;52.342;9.662;2022-12-18T13:54:51;6.00;;;4.37;;
11646;SDS011;5880;52.342;9.662;2022-12-18T13:57:35;7.17;;;4.83;;
11646;SDS011;5880;52.342;9.662;2022-12-18T14:02:47;6.47;;;4.70;;
11646;SDS011;5880;52.342;9.662;2022-12-18T14:05:34;8.50;;;4.97;;
11646;SDS011;5880;52.342;9.662;2022-12-18T14:08:05;7.17;;;5.00;;
11646;SDS011;5880;52.342;9.662;2022-12-18T14:10:42;6.20;;;4.60;;
11646;SDS011;5880;52.342;9.662;2022-12-18T14:13:13;7.90;;;5.07;;
11646;SDS011;5880;52.342;9.662;2022-12-18T14:15:55;7.87;;;5.13;;
11646;SDS011;5880;52.342;9.662;2022-12-18T14:18:26;8.47;;;5.97;;
11646;SDS011;5880;52.342;9.662;2022-12-18T14:21:17;8.87;;;5.97;;
11646;SDS011;5880;52.342;9.662;2022-12-18T14:24:12;10.60;;;6.40;;
11646;SDS011;5880;52.342;9.662;2022-12-18T14:26:41;11.40;;;7.07;;
11646;SDS011;5880;52.342;9.662;2022-12-18T14:29:22;10.20;;;7.33;;
11646;SDS011;5880;52.342;9.662;2022-12-18T14:34:51;11.30;;;6.83;;
11646;SDS011;5880;52.342;9.662;2022-12-18T14:37:20;10.83;;;7.50;;
11646;SDS011;5880;52.342;9.662;2022-12-18T14:42:18;12.90;;;8.50;;
11646;SDS011;5880;52.342;9.662;2022-12-18T14:44:44;14.83;;;9.70;;
11646;SDS011;5880;52.342;9.662;2022-12-18T14:47:13;14.07;;;8.03;;
11646;SDS011;5880;52.342;9.662;2022-12-18T14:49:41;16.43;;;9.73;;
11646;SDS011;5880;52.342;9.662;2022-12-18T14:52:20;15.23;;;9.67;;
11646;SDS011;5880;52.342;9.662;2022-12-18T14:54:54;14.60;;;9.47;;
11646;SDS011;5880;52.342;9.662;2022-12-18T14:57:23;15.53;;;9.30;;
11646;SDS011;5880;52.342;9.662;2022-12-18T15:00:07;13.40;;;8.57;;
11646;SDS011;5880;52.342;9.662;2022-12-18T15:02:46;13.27;;;8.53;;
11646;SDS011;5880;52.342;9.662;2022-12-18T15:05:29;11.97;;;7.60;;
11646;SDS011;5880;52.342;9.662;2022-12-18T15:07:57;13.93;;;8.27;;
11646;SDS011;5880;52.342;9.662;2022-12-18T15:10:29;14.50;;;8.77;;
11646;SDS011;5880;52.342;9.662;2022-12-18T15:18:13;16.17;;;9.83;;
11646;SDS011;5880;52.342;9.662;2022-12-18T15:20:46;16.20;;;9.63;;
11646;SDS011;5880;52.342;9.662;2022-12-18T15:26:15;17.37;;;9.50;;
11646;SDS011;5880;52.342;9.662;2022-12-18T15:28:44;14.17;;;8.47;;
11646;SDS011;5880;52.342;9.662;2022-12-18T15:36:25;13.10;;;8.37;;
11646;SDS011;5880;52.342;9.662;2022-12-18T15:38:52;12.97;;;7.77;;
11646;SDS011;5880;52.342;9.662;2022-12-18T15:41:20;15.60;;;8.30;;
11646;SDS011;5880;52.342;9.662;2022-12-18T15:43:48;11.37;;;7.80;;
11646;SDS011;5880;52.342;9.662;2022-12-18T15:46:17;13.77;;;8.53;;
11646;SDS011;5880;52.342;9.662;2022-12-18T15:48:53;10.73;;;7.70;;
11646;SDS011;5880;52.342;9.662;2022-12-18T15:51:23;13.77;;;9.00;;
11646;SDS011;5880;52.342;9.662;2022-12-18T15:53:53;13.70;;;8.27;;
11646;SDS011;5880;52.342;9.662;2022-12-18T15:56:23;15.97;;;9.60;;
11646;SDS011;5880;52.342;9.662;2022-12-18T15:59:12;13.63;;;9.27;;
11646;SDS011;5880;52.342;9.662;2022-12-18T16:01:41;12.53;;;8.97;;
11646;SDS011;5880;52.342;9.662;2022-12-18T16:04:14;15.53;;;9.00;;
11646;SDS011;5880;52.342;9.662;2022-12-18T16:06:44;13.93;;;8.77;;
11646;SDS011;5880;52.342;9.662;2022-12-18T16:09:10;15.37;;;9.87;;
11646;SDS011;5880;52.342;9.662;2022-12-18T16:11:36;16.23;;;9.60;;
11646;SDS011;5880;52.342;9.662;2022-12-18T16:14:12;15.30;;;9.77;;
11646;SDS011;5880;52.342;9.662;2022-12-18T16:16:53;16.30;;;9.97;;
11646;SDS011;5880;52.342;9.662;2022-12-18T16:19:21;14.07;;;9.30;;
11646;SDS011;5880;52.342;9.662;2022-12-18T16:21:48;13.13;;;8.93;;
11646;SDS011;5880;52.342;9.662;2022-12-18T16:24:20;14.93;;;9.83;;
11646;SDS011;5880;52.342;9.662;2022-12-18T16:26:52;14.20;;;8.70;;
11646;SDS011;5880;52.342;9.662;2022-12-18T16:29:20;14.23;;;9.40;;
11646;SDS011;5880;52.342;9.662;2022-12-18T16:31:50;16.00;;;8.77;;
11646;SDS011;5880;52.342;9.662;2022-12-18T16:34:23;14.23;;;8.73;;
11646;SDS011;5880;52.342;9.662;2022-12-18T16:36:58;15.17;;;9.17;;
11646;SDS011;5880;52.342;9.662;2022-12-18T16:39:27;15.30;;;9.43;;
11646;SDS011;5880;52.342;9.662;2022-12-18T16:41:53;15.30;;;10.53;;
11646;SDS011;5880;52.342;9.662;2022-12-18T16:44:19;15.27;;;10.60;;
11646;SDS011;5880;52.342;9.662;2022-12-18T16:46:45;14.30;;;9.43;;
11646;SDS011;5880;52.342;9.662;2022-12-18T16:49:12;14.23;;;9.20;;
11646;SDS011;5880;52.342;9.662;2022-12-18T16:51:43;13.57;;;9.33;;
11646;SDS011;5880;52.342;9.662;2022-12-18T16:54:10;14.00;;;8.70;;
11646;SDS011;5880;52.342;9.662;2022-12-18T16:56:36;13.73;;;8.73;;
11646;SDS011;5880;52.342;9.662;2022-12-18T16:59:02;14.03;;;8.93;;
11646;SDS011;5880;52.342;9.662;2022-12-18T17:01:29;13.17;;;8.57;;
11646;SDS011;5880;52.342;9.662;2022-12-18T17:03:57;12.50;;;8.17;;
11646;SDS011;5880;52.342;9.662;2022-12-18T17:06:31;14.97;;;8.33;;
11646;SDS011;5880;52.342;9.662;2022-12-18T17:09:05;14.13;;;8.30;;
11646;SDS011;5880;52.342;9.662;2022-12-18T17:11:34;12.13;;;8.10;;
11646;SDS011;5880;52.342;9.662;2022-12-18T17:14:06;12.43;;;8.33;;
11646;SDS011;5880;52.342;9.662;2022-12-18T17:16:36;12.87;;;8.03;;
11646;SDS011;5880;52.342;9.662;2022-12-18T17:19:02;13.07;;;8.37;;
11646;SDS011;5880;52.342;9.662;2022-12-18T17:21:28;11.73;;;7.67;;
11646;SDS011;5880;52.342;9.662;2022-12-18T17:23:54;11.10;;;7.37;;
11646;SDS011;5880;52.342;9.662;2022-12-18T17:26:20;11.67;;;7.63;;
11646;SDS011;5880;52.342;9.662;2022-12-18T17:28:45;11.30;;;7.90;;
11646;SDS011;5880;52.342;9.662;2022-12-18T17:31:13;12.53;;;8.30;;
11646;SDS011;5880;52.342;9.662;2022-12-18T17:33:43;12.37;;;7.90;;
11646;SDS011;5880;52.342;9.662;2022-12-18T17:36:09;12.43;;;8.47;;